sensor_id;sensor_type;location;lat;lon;timestamp;pressure;altitude;pressure_sealevel;temperature;humidity
64362;BME280;50685;53.346;-6.296;2022-10-31T00:00:03;100494.34;;;12.53;81.29
64362;BME280;50685;53.346;-6.296;2022-10-31T00:02:28;100486.34;;;12.55;81.27
64362;BME280;50685;53.346;-6.296;2022-10-31T00:04:53;100491.63;;;12.57;81.49
64362;BME280;50685;53.346;-6.296;2022-10-31T00:07:19;100496.84;;;12.61;81.10
64362;BME280;50685;53.346;-6.296;2022-10-31T00:09:44;100500.25;;;12.66;80.84
64362;BME280;50685;53.346;-6.296;2022-10-31T00:12:09;100498.25;;;12.75;80.33
64362;BME280;50685;53.346;-6.296;2022-10-31T00:14:35;100493.81;;;12.75;80.42
64362;BME280;50685;53.346;-6.296;2022-10-31T00:17:00;100490.28;;;12.73;80.67
64362;BME280;50685;53.346;-6.296;2022-10-31T00:19:25;100486.81;;;12.71;80.99
64362;BME280;50685;53.346;-6.296;2022-10-31T00:21:54;100494.88;;;12.68;81.17
64362;BME280;50685;53.346;-6.296;2022-10-31T00:24:19;100493.97;;;12.69;80.76
64362;BME280;50685;53.346;-6.296;2022-10-31T00:26:44;100497.53;;;12.68;80.80
64362;BME280;50685;53.346;-6.296;2022-10-31T00:29:10;100501.16;;;12.65;80.88
64362;BME280;50685;53.346;-6.296;2022-10-31T00:31:35;100498.59;;;12.62;81.11
64362;BME280;50685;53.346;-6.296;2022-10-31T00:34:00;100501.34;;;12.58;81.21
64362;BME280;50685;53.346;-6.296;2022-10-31T00:36:27;100483.59;;;12.60;81.19
64362;BME280;50685;53.346;-6.296;2022-10-31T00:39:00;100479.03;;;12.63;80.74
64362;BME280;50685;53.346;-6.296;2022-10-31T00:41:26;100478.09;;;12.66;80.65
64362;BME280;50685;53.346;-6.296;2022-10-31T00:43:54;100479.81;;;12.67;80.76
64362;BME280;50685;53.346;-6.296;2022-10-31T00:46:19;100479.75;;;12.70;80.33
64362;BME280;50685;53.346;-6.296;2022-10-31T00:48:44;100480.59;;;12.70;80.47
64362;BME280;50685;53.346;-6.296;2022-10-31T00:51:10;100483.31;;;12.69;80.66
64362;BME280;50685;53.346;-6.296;2022-10-31T00:53:35;100471.72;;;12.72;79.88
64362;BME280;50685;53.346;-6.296;2022-10-31T00:56:00;100461.81;;;12.77;79.03
64362;BME280;50685;53.346;-6.296;2022-10-31T00:58:26;100452.81;;;12.82;78.35
64362;BME280;50685;53.346;-6.296;2022-10-31T01:00:51;100464.25;;;12.86;77.85
64362;BME280;50685;53.346;-6.296;2022-10-31T01:03:23;100447.25;;;12.90;78.12
64362;BME280;50685;53.346;-6.296;2022-10-31T01:08:43;100452.75;;;12.84;78.12
64362;BME280;50685;53.346;-6.296;2022-10-31T01:11:11;100447.53;;;12.81;77.98
64362;BME280;50685;53.346;-6.296;2022-10-31T01:13:37;100442.16;;;12.82;77.82
64362;BME280;50685;53.346;-6.296;2022-10-31T01:16:02;100441.94;;;12.90;77.50
64362;BME280;50685;53.346;-6.296;2022-10-31T01:18:29;100452.38;;;12.98;76.94
64362;BME280;50685;53.346;-6.296;2022-10-31T01:21:02;100443.44;;;12.99;76.52
64362;BME280;50685;53.346;-6.296;2022-10-31T01:23:28;100447.06;;;12.98;76.45
64362;BME280;50685;53.346;-6.296;2022-10-31T01:26:00;100450.53;;;13.00;76.62
64362;BME280;50685;53.346;-6.296;2022-10-31T01:28:26;100433.69;;;12.99;77.36
64362;BME280;50685;53.346;-6.296;2022-10-31T01:30:51;100434.56;;;13.00;77.29
64362;BME280;50685;53.346;-6.296;2022-10-31T01:33:16;100439.03;;;12.99;77.57
64362;BME280;50685;53.346;-6.296;2022-10-31T01:35:42;100437.03;;;13.06;77.62
64362;BME280;50685;53.346;-6.296;2022-10-31T01:38:15;100434.34;;;13.08;77.82
64362;BME280;50685;53.346;-6.296;2022-10-31T01:40:40;100430.81;;;13.07;77.85
64362;BME280;50685;53.346;-6.296;2022-10-31T01:43:07;100424.63;;;13.05;78.09
64362;BME280;50685;53.346;-6.296;2022-10-31T01:45:34;100427.31;;;13.05;77.99
64362;BME280;50685;53.346;-6.296;2022-10-31T01:47:59;100419.28;;;13.07;77.95
64362;BME280;50685;53.346;-6.296;2022-10-31T01:50:29;100422.03;;;13.04;78.19
64362;BME280;50685;53.346;-6.296;2022-10-31T01:52:57;100417.66;;;13.01;78.12
64362;BME280;50685;53.346;-6.296;2022-10-31T01:55:26;100424.81;;;13.00;78.07
64362;BME280;50685;53.346;-6.296;2022-10-31T01:57:53;100419.47;;;13.00;77.70
64362;BME280;50685;53.346;-6.296;2022-10-31T02:00:22;100430.06;;;13.02;77.96
64362;BME280;50685;53.346;-6.296;2022-10-31T02:02:48;100416.56;;;13.08;77.25
64362;BME280;50685;53.346;-6.296;2022-10-31T02:05:15;100407.56;;;13.12;77.04
64362;BME280;50685;53.346;-6.296;2022-10-31T02:10:25;100407.50;;;13.15;76.72
64362;BME280;50685;53.346;-6.296;2022-10-31T02:12:52;100404.06;;;13.12;76.82
64362;BME280;50685;53.346;-6.296;2022-10-31T02:15:20;100406.72;;;13.12;76.52
64362;BME280;50685;53.346;-6.296;2022-10-31T02:17:45;100415.75;;;13.06;76.74
64362;BME280;50685;53.346;-6.296;2022-10-31T02:20:13;100413.19;;;13.03;76.64
64362;BME280;50685;53.346;-6.296;2022-10-31T02:25:46;100410.53;;;13.03;76.84
64362;BME280;50685;53.346;-6.296;2022-10-31T02:33:30;100397.53;;;12.92;77.73
64362;BME280;50685;53.346;-6.296;2022-10-31T02:36:04;100395.81;;;12.90;78.11
64362;BME280;50685;53.346;-6.296;2022-10-31T02:52:19;100367.81;;;13.08;77.23
64362;BME280;50685;53.346;-6.296;2022-10-31T02:54:46;100380.28;;;13.06;77.31
64362;BME280;50685;53.346;-6.296;2022-10-31T02:57:11;100366.00;;;13.08;77.30
64362;BME280;50685;53.346;-6.296;2022-10-31T02:59:38;100364.31;;;13.06;77.81
64362;BME280;50685;53.346;-6.296;2022-10-31T03:04:49;100356.97;;;13.14;77.14
64362;BME280;50685;53.346;-6.296;2022-10-31T03:09:48;100334.38;;;13.26;76.54
64362;BME280;50685;53.346;-6.296;2022-10-31T03:12:22;100340.41;;;13.32;76.36
64362;BME280;50685;53.346;-6.296;2022-10-31T03:15:19;100349.31;;;13.31;76.51
64362;BME280;50685;53.346;-6.296;2022-10-31T03:18:00;100350.38;;;13.26;77.06
64362;BME280;50685;53.346;-6.296;2022-10-31T03:20:33;100352.06;;;13.28;76.97
64362;BME280;50685;53.346;-6.296;2022-10-31T03:23:02;100349.41;;;13.28;77.16
64362;BME280;50685;53.346;-6.296;2022-10-31T03:25:31;100345.88;;;13.28;77.60
64362;BME280;50685;53.346;-6.296;2022-10-31T03:27:59;100340.63;;;13.25;77.44
64362;BME280;50685;53.346;-6.296;2022-10-31T03:30:26;100345.22;;;13.21;77.43
64362;BME280;50685;53.346;-6.296;2022-10-31T03:32:52;100341.66;;;13.21;77.25
64362;BME280;50685;53.346;-6.296;2022-10-31T03:35:23;100347.09;;;13.17;77.55
64362;BME280;50685;53.346;-6.296;2022-10-31T03:37:48;100340.88;;;13.17;76.96
64362;BME280;50685;53.346;-6.296;2022-10-31T03:40:14;100344.25;;;13.22;77.35
64362;BME280;50685;53.346;-6.296;2022-10-31T03:42:43;100338.78;;;13.27;77.37
64362;BME280;50685;53.346;-6.296;2022-10-31T03:45:15;100333.41;;;13.28;77.89
64362;BME280;50685;53.346;-6.296;2022-10-31T03:47:53;100338.72;;;13.30;78.08
64362;BME280;50685;53.346;-6.296;2022-10-31T03:50:20;100329.94;;;13.26;78.26
64362;BME280;50685;53.346;-6.296;2022-10-31T03:52:52;100337.97;;;13.25;77.91
64362;BME280;50685;53.346;-6.296;2022-10-31T03:55:27;100330.03;;;13.23;77.46
64362;BME280;50685;53.346;-6.296;2022-10-31T03:58:00;100338.84;;;13.25;77.07
64362;BME280;50685;53.346;-6.296;2022-10-31T04:00:28;100342.38;;;13.26;76.56
64362;BME280;50685;53.346;-6.296;2022-10-31T04:02:58;100335.31;;;13.25;76.37
64362;BME280;50685;53.346;-6.296;2022-10-31T04:05:25;100336.31;;;13.21;76.80
64362;BME280;50685;53.346;-6.296;2022-10-31T04:07:52;100337.38;;;13.15;77.22
64362;BME280;50685;53.346;-6.296;2022-10-31T04:10:18;100339.31;;;13.10;77.35
64362;BME280;50685;53.346;-6.296;2022-10-31T04:12:45;100326.06;;;13.08;78.37
64362;BME280;50685;53.346;-6.296;2022-10-31T04:15:12;100330.41;;;13.11;78.81
64362;BME280;50685;53.346;-6.296;2022-10-31T04:17:39;100326.91;;;13.10;79.31
64362;BME280;50685;53.346;-6.296;2022-10-31T04:20:06;100334.97;;;13.07;79.51
64362;BME280;50685;53.346;-6.296;2022-10-31T04:22:31;100326.06;;;13.08;79.66
64362;BME280;50685;53.346;-6.296;2022-10-31T04:24:56;100326.91;;;13.09;79.59
64362;BME280;50685;53.346;-6.296;2022-10-31T04:27:22;100327.81;;;13.09;79.51
64362;BME280;50685;53.346;-6.296;2022-10-31T04:29:47;100322.38;;;13.12;78.92
64362;BME280;50685;53.346;-6.296;2022-10-31T04:32:13;100325.09;;;13.11;79.10
64362;BME280;50685;53.346;-6.296;2022-10-31T04:34:38;100321.66;;;13.07;79.24
64362;BME280;50685;53.346;-6.296;2022-10-31T04:37:03;100325.28;;;13.05;79.24
64362;BME280;50685;53.346;-6.296;2022-10-31T04:39:29;100324.41;;;13.04;79.00
64362;BME280;50685;53.346;-6.296;2022-10-31T04:41:54;100325.28;;;13.05;79.07
64362;BME280;50685;53.346;-6.296;2022-10-31T04:44:20;100326.13;;;13.05;79.41
64362;BME280;50685;53.346;-6.296;2022-10-31T04:46:45;100320.78;;;13.07;79.61
64362;BME280;50685;53.346;-6.296;2022-10-31T04:49:11;100316.38;;;13.06;79.89
64362;BME280;50685;53.346;-6.296;2022-10-31T04:51:36;100307.44;;;13.08;79.43
64362;BME280;50685;53.346;-6.296;2022-10-31T04:54:01;100307.34;;;13.11;78.87
64362;BME280;50685;53.346;-6.296;2022-10-31T04:56:27;100300.22;;;13.12;78.84
64362;BME280;50685;53.346;-6.296;2022-10-31T04:58:55;100309.88;;;13.14;78.09
64362;BME280;50685;53.346;-6.296;2022-10-31T05:01:20;100308.00;;;13.18;78.19
64362;BME280;50685;53.346;-6.296;2022-10-31T05:03:46;100310.63;;;13.20;77.48
64362;BME280;50685;53.346;-6.296;2022-10-31T05:06:11;100307.94;;;13.20;77.48
64362;BME280;50685;53.346;-6.296;2022-10-31T05:08:39;100297.34;;;13.18;77.23
64362;BME280;50685;53.346;-6.296;2022-10-31T05:11:04;100302.63;;;13.20;76.70
64362;BME280;50685;53.346;-6.296;2022-10-31T05:13:33;100311.44;;;13.22;76.87
64362;BME280;50685;53.346;-6.296;2022-10-31T05:15:58;100304.19;;;13.27;76.75
64362;BME280;50685;53.346;-6.296;2022-10-31T05:18:41;100297.78;;;13.32;76.57
64362;BME280;50685;53.346;-6.296;2022-10-31T05:21:07;100307.38;;;13.38;75.75
64362;BME280;50685;53.346;-6.296;2022-10-31T05:23:32;100303.81;;;13.39;76.11
64362;BME280;50685;53.346;-6.296;2022-10-31T05:25:59;100303.81;;;13.39;75.97
64362;BME280;50685;53.346;-6.296;2022-10-31T05:28:25;100298.53;;;13.38;76.19
64362;BME280;50685;53.346;-6.296;2022-10-31T05:30:50;100304.66;;;13.41;76.27
64362;BME280;50685;53.346;-6.296;2022-10-31T05:33:15;100295.75;;;13.41;76.53
64362;BME280;50685;53.346;-6.296;2022-10-31T05:35:41;100288.75;;;13.38;77.16
64362;BME280;50685;53.346;-6.296;2022-10-31T05:38:06;100286.97;;;13.39;77.72
64362;BME280;50685;53.346;-6.296;2022-10-31T05:40:50;100284.25;;;13.40;77.72
64362;BME280;50685;53.346;-6.296;2022-10-31T05:43:17;100271.78;;;13.41;78.09
64362;BME280;50685;53.346;-6.296;2022-10-31T05:45:43;100282.44;;;13.41;78.50
64362;BME280;50685;53.346;-6.296;2022-10-31T05:48:10;100283.41;;;13.40;78.55
64362;BME280;50685;53.346;-6.296;2022-10-31T05:53:20;100294.06;;;13.38;79.46
64362;BME280;50685;53.346;-6.296;2022-10-31T05:55:48;100287.00;;;13.37;79.79
64362;BME280;50685;53.346;-6.296;2022-10-31T05:58:13;100294.16;;;13.35;79.60
64362;BME280;50685;53.346;-6.296;2022-10-31T06:00:38;100295.00;;;13.36;79.57
64362;BME280;50685;53.346;-6.296;2022-10-31T06:03:05;100290.50;;;13.39;78.90
64362;BME280;50685;53.346;-6.296;2022-10-31T06:05:31;100297.50;;;13.42;78.70
64362;BME280;50685;53.346;-6.296;2022-10-31T06:07:56;100298.28;;;13.45;78.81
64362;BME280;50685;53.346;-6.296;2022-10-31T06:10:22;100296.34;;;13.50;78.55
64362;BME280;50685;53.346;-6.296;2022-10-31T06:12:47;100306.91;;;13.54;78.69
64362;BME280;50685;53.346;-6.296;2022-10-31T06:15:13;100295.31;;;13.55;78.57
64362;BME280;50685;53.346;-6.296;2022-10-31T06:17:56;100291.75;;;13.56;78.65
64362;BME280;50685;53.346;-6.296;2022-10-31T06:20:21;100294.50;;;13.53;78.96
64362;BME280;50685;53.346;-6.296;2022-10-31T06:22:47;100291.97;;;13.48;79.17
64362;BME280;50685;53.346;-6.296;2022-10-31T06:25:12;100277.88;;;13.44;79.66
64362;BME280;50685;53.346;-6.296;2022-10-31T06:27:38;100283.28;;;13.43;79.66
64362;BME280;50685;53.346;-6.296;2022-10-31T06:30:03;100279.84;;;13.39;79.63
64362;BME280;50685;53.346;-6.296;2022-10-31T06:32:28;100280.75;;;13.38;79.78
64362;BME280;50685;53.346;-6.296;2022-10-31T06:34:54;100291.41;;;13.38;79.50
64362;BME280;50685;53.346;-6.296;2022-10-31T06:37:19;100283.41;;;13.38;79.97
64362;BME280;50685;53.346;-6.296;2022-10-31T06:39:45;100287.00;;;13.37;79.90
64362;BME280;50685;53.346;-6.296;2022-10-31T06:42:10;100280.72;;;13.40;79.44
64362;BME280;50685;53.346;-6.296;2022-10-31T06:44:35;100279.56;;;13.47;78.64
64362;BME280;50685;53.346;-6.296;2022-10-31T06:47:01;100280.31;;;13.52;78.35
64362;BME280;50685;53.346;-6.296;2022-10-31T06:49:29;100282.88;;;13.55;78.36
64362;BME280;50685;53.346;-6.296;2022-10-31T06:51:56;100280.13;;;13.58;79.03
64362;BME280;50685;53.346;-6.296;2022-10-31T06:54:22;100269.53;;;13.55;79.56
64362;BME280;50685;53.346;-6.296;2022-10-31T06:56:47;100263.41;;;13.53;79.36
64362;BME280;50685;53.346;-6.296;2022-10-31T06:59:13;100277.66;;;13.52;79.56
64362;BME280;50685;53.346;-6.296;2022-10-31T07:01:42;100277.66;;;13.52;79.52
64362;BME280;50685;53.346;-6.296;2022-10-31T07:04:09;100282.88;;;13.55;79.18
64362;BME280;50685;53.346;-6.296;2022-10-31T07:06:34;100272.88;;;13.62;79.24
64362;BME280;50685;53.346;-6.296;2022-10-31T07:08:59;100273.66;;;13.65;79.13
64362;BME280;50685;53.346;-6.296;2022-10-31T07:11:25;100290.50;;;13.66;79.50
64362;BME280;50685;53.346;-6.296;2022-10-31T07:13:50;100294.09;;;13.65;80.69
64362;BME280;50685;53.346;-6.296;2022-10-31T07:16:15;100301.38;;;13.60;81.35
64362;BME280;50685;53.346;-6.296;2022-10-31T07:18:41;100309.50;;;13.55;81.24
64362;BME280;50685;53.346;-6.296;2022-10-31T07:21:06;100300.72;;;13.53;81.56
64362;BME280;50685;53.346;-6.296;2022-10-31T07:23:31;100302.56;;;13.51;82.09
64362;BME280;50685;53.346;-6.296;2022-10-31T07:25:57;100305.31;;;13.48;81.72
64362;BME280;50685;53.346;-6.296;2022-10-31T07:28:23;100302.63;;;13.48;81.93
64362;BME280;50685;53.346;-6.296;2022-10-31T07:30:49;100301.84;;;13.46;81.93
64362;BME280;50685;53.346;-6.296;2022-10-31T07:33:14;100308.94;;;13.45;81.36
64362;BME280;50685;53.346;-6.296;2022-10-31T07:35:40;100308.88;;;13.47;80.92
64362;BME280;50685;53.346;-6.296;2022-10-31T07:38:09;100309.72;;;13.49;81.07
64362;BME280;50685;53.346;-6.296;2022-10-31T07:40:35;100316.72;;;13.52;80.56
64362;BME280;50685;53.346;-6.296;2022-10-31T07:43:03;100318.38;;;13.56;80.11
64362;BME280;50685;53.346;-6.296;2022-10-31T07:45:28;100324.44;;;13.61;79.43
64362;BME280;50685;53.346;-6.296;2022-10-31T07:47:54;100324.31;;;13.64;79.48
64362;BME280;50685;53.346;-6.296;2022-10-31T07:50:20;100314.44;;;13.68;79.82
64362;BME280;50685;53.346;-6.296;2022-10-31T07:52:46;100318.00;;;13.66;79.88
64362;BME280;50685;53.346;-6.296;2022-10-31T07:55:14;100328.84;;;13.62;80.56
64362;BME280;50685;53.346;-6.296;2022-10-31T07:57:40;100326.31;;;13.57;80.37
64362;BME280;50685;53.346;-6.296;2022-10-31T08:00:06;100329.06;;;13.54;80.74
64362;BME280;50685;53.346;-6.296;2022-10-31T08:02:32;100325.56;;;13.54;80.23
64362;BME280;50685;53.346;-6.296;2022-10-31T08:04:57;100333.44;;;13.57;79.94
64362;BME280;50685;53.346;-6.296;2022-10-31T08:07:24;100328.94;;;13.59;79.47
64362;BME280;50685;53.346;-6.296;2022-10-31T08:09:50;100327.09;;;13.61;79.66
64362;BME280;50685;53.346;-6.296;2022-10-31T08:12:15;100334.13;;;13.63;79.64
64362;BME280;50685;53.346;-6.296;2022-10-31T08:14:40;100329.44;;;13.70;78.26
64362;BME280;50685;53.346;-6.296;2022-10-31T08:17:06;100314.78;;;13.84;77.60
64362;BME280;50685;53.346;-6.296;2022-10-31T08:19:31;100327.69;;;13.96;77.85
64362;BME280;50685;53.346;-6.296;2022-10-31T08:21:56;100318.56;;;14.03;77.17
64362;BME280;50685;53.346;-6.296;2022-10-31T08:24:23;100327.94;;;14.15;76.93
64362;BME280;50685;53.346;-6.296;2022-10-31T08:26:51;100320.84;;;14.39;76.81
64362;BME280;50685;53.346;-6.296;2022-10-31T08:29:16;100325.78;;;14.75;73.40
64362;BME280;50685;53.346;-6.296;2022-10-31T08:31:42;100316.03;;;15.20;72.25
64362;BME280;50685;53.346;-6.296;2022-10-31T08:34:07;100315.97;;;15.44;70.71
64362;BME280;50685;53.346;-6.296;2022-10-31T08:36:33;100313.47;;;15.39;70.40
64362;BME280;50685;53.346;-6.296;2022-10-31T08:39:01;100323.59;;;15.31;70.54
64362;BME280;50685;53.346;-6.296;2022-10-31T08:41:29;100319.22;;;15.30;70.79
64362;BME280;50685;53.346;-6.296;2022-10-31T08:43:57;100312.00;;;15.32;68.55
64362;BME280;50685;53.346;-6.296;2022-10-31T08:46:25;100315.78;;;15.49;68.37
64362;BME280;50685;53.346;-6.296;2022-10-31T08:48:50;100309.94;;;15.61;67.73
64362;BME280;50685;53.346;-6.296;2022-10-31T08:51:16;100309.75;;;15.66;67.07
64362;BME280;50685;53.346;-6.296;2022-10-31T08:53:41;100307.13;;;15.86;67.14
64362;BME280;50685;53.346;-6.296;2022-10-31T08:56:06;100308.41;;;16.19;65.82
64362;BME280;50685;53.346;-6.296;2022-10-31T08:58:34;100322.56;;;16.42;63.78
64362;BME280;50685;53.346;-6.296;2022-10-31T09:01:00;100317.28;;;16.40;64.94
64362;BME280;50685;53.346;-6.296;2022-10-31T09:03:26;100327.13;;;16.19;64.47
64362;BME280;50685;53.346;-6.296;2022-10-31T09:05:55;100327.97;;;15.99;66.69
64362;BME280;50685;53.346;-6.296;2022-10-31T09:08:21;100325.31;;;15.77;67.50
64362;BME280;50685;53.346;-6.296;2022-10-31T09:10:46;100326.22;;;15.55;67.95
64362;BME280;50685;53.346;-6.296;2022-10-31T09:13:13;100326.91;;;15.38;68.97
64362;BME280;50685;53.346;-6.296;2022-10-31T09:15:40;100325.75;;;15.23;69.86
64362;BME280;50685;53.346;-6.296;2022-10-31T09:18:06;100346.63;;;15.12;70.30
64362;BME280;50685;53.346;-6.296;2022-10-31T09:20:35;100322.97;;;15.02;71.20
64362;BME280;50685;53.346;-6.296;2022-10-31T09:23:02;100335.75;;;14.94;72.03
64362;BME280;50685;53.346;-6.296;2022-10-31T09:25:30;100329.78;;;14.87;72.33
64362;BME280;50685;53.346;-6.296;2022-10-31T09:27:59;100331.88;;;14.79;73.19
64362;BME280;50685;53.346;-6.296;2022-10-31T09:30:26;100330.34;;;14.72;73.56
64362;BME280;50685;53.346;-6.296;2022-10-31T09:32:58;100328.66;;;14.69;73.67
64362;BME280;50685;53.346;-6.296;2022-10-31T09:35:24;100335.91;;;14.66;74.32
64362;BME280;50685;53.346;-6.296;2022-10-31T09:37:58;100329.72;;;14.65;73.59
64362;BME280;50685;53.346;-6.296;2022-10-31T09:40:25;100326.09;;;14.66;73.16
64362;BME280;50685;53.346;-6.296;2022-10-31T09:43:28;100338.53;;;14.67;73.51
64362;BME280;50685;53.346;-6.296;2022-10-31T09:48:37;100320.44;;;14.75;72.89
64362;BME280;50685;53.346;-6.296;2022-10-31T09:51:16;100327.22;;;14.84;71.92
64362;BME280;50685;53.346;-6.296;2022-10-31T09:56:13;100321.22;;;15.01;71.65
64362;BME280;50685;53.346;-6.296;2022-10-31T09:58:41;100312.81;;;15.12;70.60
64362;BME280;50685;53.346;-6.296;2022-10-31T10:02:27;100303.47;;;15.22;70.63
64362;BME280;50685;53.346;-6.296;2022-10-31T10:04:34;100314.84;;;15.27;69.61
64362;BME280;50685;53.346;-6.296;2022-10-31T10:07:06;100320.75;;;15.36;69.73
64362;BME280;50685;53.346;-6.296;2022-10-31T10:09:33;100306.22;;;15.43;69.24
64362;BME280;50685;53.346;-6.296;2022-10-31T10:12:03;100304.09;;;15.51;70.07
64362;BME280;50685;53.346;-6.296;2022-10-31T10:17:18;100315.47;;;15.56;68.22
64362;BME280;50685;53.346;-6.296;2022-10-31T10:19:53;100302.03;;;15.58;67.93
64362;BME280;50685;53.346;-6.296;2022-10-31T10:27:51;100307.13;;;15.64;68.06
64362;BME280;50685;53.346;-6.296;2022-10-31T10:30:21;100311.53;;;15.65;68.06
64362;BME280;50685;53.346;-6.296;2022-10-31T10:32:51;100302.59;;;15.66;68.81
64362;BME280;50685;53.346;-6.296;2022-10-31T10:35:28;100298.91;;;15.69;68.58
64362;BME280;50685;53.346;-6.296;2022-10-31T10:37:56;100292.56;;;15.71;67.75
64362;BME280;50685;53.346;-6.296;2022-10-31T10:40:24;100297.41;;;15.84;67.85
64362;BME280;50685;53.346;-6.296;2022-10-31T10:43:19;100290.69;;;15.96;67.36
64362;BME280;50685;53.346;-6.296;2022-10-31T10:51:48;100299.84;;;16.11;65.69
64362;BME280;50685;53.346;-6.296;2022-10-31T10:57:21;100287.53;;;16.27;66.12
64362;BME280;50685;53.346;-6.296;2022-10-31T10:59:47;100286.38;;;16.33;65.83
64362;BME280;50685;53.346;-6.296;2022-10-31T11:02:32;100289.78;;;16.36;65.90
64362;BME280;50685;53.346;-6.296;2022-10-31T11:04:58;100284.06;;;16.44;65.42
64362;BME280;50685;53.346;-6.296;2022-10-31T11:07:37;100283.78;;;16.50;65.22
64362;BME280;50685;53.346;-6.296;2022-10-31T11:10:03;100294.28;;;16.55;65.68
64362;BME280;50685;53.346;-6.296;2022-10-31T11:12:32;100289.66;;;16.59;65.43
64362;BME280;50685;53.346;-6.296;2022-10-31T11:14:59;100282.53;;;16.59;64.57
64362;BME280;50685;53.346;-6.296;2022-10-31T11:17:29;100273.59;;;16.59;63.98
64362;BME280;50685;53.346;-6.296;2022-10-31T11:20:25;100278.09;;;16.58;64.39
64362;BME280;50685;53.346;-6.296;2022-10-31T11:22:47;100282.44;;;16.61;64.86
64362;BME280;50685;53.346;-6.296;2022-10-31T11:25:20;100280.63;;;16.61;65.00
64362;BME280;50685;53.346;-6.296;2022-10-31T11:27:46;100285.84;;;16.64;63.77
64362;BME280;50685;53.346;-6.296;2022-10-31T11:30:12;100287.03;;;16.78;64.30
64362;BME280;50685;53.346;-6.296;2022-10-31T11:32:42;100283.41;;;16.98;64.68
64362;BME280;50685;53.346;-6.296;2022-10-31T11:35:09;100288.59;;;17.20;63.29
64362;BME280;50685;53.346;-6.296;2022-10-31T11:37:42;100283.44;;;17.34;63.19
64362;BME280;50685;53.346;-6.296;2022-10-31T11:40:44;100283.13;;;17.41;62.40
64362;BME280;50685;53.346;-6.296;2022-10-31T11:43:03;100277.16;;;17.36;62.81
64362;BME280;50685;53.346;-6.296;2022-10-31T11:45:32;100272.53;;;17.20;61.79
64362;BME280;50685;53.346;-6.296;2022-10-31T11:48:02;100271.09;;;17.13;63.01
64362;BME280;50685;53.346;-6.296;2022-10-31T11:50:40;100273.50;;;17.00;64.13
64362;BME280;50685;53.346;-6.296;2022-10-31T11:53:16;100269.47;;;16.90;63.56
64362;BME280;50685;53.346;-6.296;2022-10-31T11:55:42;100266.25;;;16.83;64.49
64362;BME280;50685;53.346;-6.296;2022-10-31T11:58:22;100263.97;;;16.74;64.89
64362;BME280;50685;53.346;-6.296;2022-10-31T12:00:51;100260.81;;;16.65;65.47
64362;BME280;50685;53.346;-6.296;2022-10-31T12:08:35;100247.28;;;16.49;65.72
64362;BME280;50685;53.346;-6.296;2022-10-31T12:13:33;100245.34;;;16.53;65.84
64362;BME280;50685;53.346;-6.296;2022-10-31T12:16:02;100228.31;;;16.54;65.42
64362;BME280;50685;53.346;-6.296;2022-10-31T12:34:38;100195.97;;;16.59;65.06
64362;BME280;50685;53.346;-6.296;2022-10-31T12:39:53;100227.56;;;16.50;65.66
64362;BME280;50685;53.346;-6.296;2022-10-31T12:55:41;100202.75;;;16.28;66.84
64362;BME280;50685;53.346;-6.296;2022-10-31T12:58:17;100190.69;;;16.19;66.68
64362;BME280;50685;53.346;-6.296;2022-10-31T13:00:45;100183.72;;;16.15;66.38
64362;BME280;50685;53.346;-6.296;2022-10-31T13:03:20;100184.97;;;16.08;66.25
64362;BME280;50685;53.346;-6.296;2022-10-31T13:05:48;100182.56;;;16.01;66.39
64362;BME280;50685;53.346;-6.296;2022-10-31T13:08:22;100180.09;;;15.97;66.48
64362;BME280;50685;53.346;-6.296;2022-10-31T13:13:18;100184.06;;;15.88;66.54
64362;BME280;50685;53.346;-6.296;2022-10-31T13:15:56;100176.28;;;15.82;66.95
64362;BME280;50685;53.346;-6.296;2022-10-31T13:20:53;100193.81;;;15.68;68.02
64362;BME280;50685;53.346;-6.296;2022-10-31T13:25:50;100183.75;;;15.53;71.22
64362;BME280;50685;53.346;-6.296;2022-10-31T13:31:21;100172.66;;;15.21;72.67
64362;BME280;50685;53.346;-6.296;2022-10-31T13:33:48;100180.44;;;15.05;73.25
64362;BME280;50685;53.346;-6.296;2022-10-31T13:36:26;100179.00;;;14.96;73.04
64362;BME280;50685;53.346;-6.296;2022-10-31T13:38:57;100170.34;;;14.91;73.36
64362;BME280;50685;53.346;-6.296;2022-10-31T13:41:28;100178.44;;;14.88;73.35
64362;BME280;50685;53.346;-6.296;2022-10-31T13:46:23;100175.72;;;14.89;73.46
64362;BME280;50685;53.346;-6.296;2022-10-31T13:48:49;100173.94;;;14.90;72.13
64362;BME280;50685;53.346;-6.296;2022-10-31T13:51:23;100164.09;;;14.90;71.75
64362;BME280;50685;53.346;-6.296;2022-10-31T13:56:20;100148.81;;;14.94;71.30
64362;BME280;50685;53.346;-6.296;2022-10-31T13:59:21;100136.38;;;14.94;70.80
64362;BME280;50685;53.346;-6.296;2022-10-31T14:01:56;100152.31;;;14.96;71.21
64362;BME280;50685;53.346;-6.296;2022-10-31T14:04:25;100173.59;;;14.98;70.70
64362;BME280;50685;53.346;-6.296;2022-10-31T14:07:07;100150.31;;;15.01;69.71
64362;BME280;50685;53.346;-6.296;2022-10-31T14:12:36;100148.19;;;15.09;70.39
64362;BME280;50685;53.346;-6.296;2022-10-31T14:15:13;100139.31;;;15.09;70.47
64362;BME280;50685;53.346;-6.296;2022-10-31T14:22:37;100139.63;;;15.01;71.18
64362;BME280;50685;53.346;-6.296;2022-10-31T14:25:24;100148.81;;;14.94;71.65
64362;BME280;50685;53.346;-6.296;2022-10-31T14:28:20;100142.06;;;14.85;71.77
64362;BME280;50685;53.346;-6.296;2022-10-31T14:30:56;100126.22;;;14.81;71.75
64362;BME280;50685;53.346;-6.296;2022-10-31T14:33:22;100130.66;;;14.82;72.36
64362;BME280;50685;53.346;-6.296;2022-10-31T14:38:26;100125.25;;;14.83;71.24
64362;BME280;50685;53.346;-6.296;2022-10-31T14:41:16;100123.38;;;14.85;69.67
64362;BME280;50685;53.346;-6.296;2022-10-31T14:44:03;100115.25;;;14.88;69.44
64362;BME280;50685;53.346;-6.296;2022-10-31T14:49:34;100108.94;;;14.91;68.60
64362;BME280;50685;53.346;-6.296;2022-10-31T14:52:05;100110.63;;;14.92;68.17
64362;BME280;50685;53.346;-6.296;2022-10-31T14:54:33;100108.94;;;14.91;67.84